createdAt,value
2022-11-03T00:00:23.627Z,84.16
2022-11-03T00:01:24.014Z,84.57
2022-11-03T00:02:23.535Z,84.67
2022-11-03T00:03:29.905Z,84.78
2022-11-03T00:04:23.339Z,84.88
2022-11-03T00:05:23.571Z,84.88
2022-11-03T00:06:23.406Z,84.88
2022-11-03T00:07:23.304Z,84.78
2022-11-03T00:08:24.518Z,84.67
2022-11-03T00:09:23.368Z,84.47
2022-11-03T00:10:23.240Z,84.27
2022-11-03T00:11:23.279Z,84.16
2022-11-03T00:12:23.221Z,84.27
2022-11-03T00:13:23.144Z,84.47
2022-11-03T00:14:24.069Z,84.47
2022-11-03T00:15:23.205Z,84.36
2022-11-03T00:16:23.216Z,84.36
2022-11-03T00:17:23.215Z,84.36
2022-11-03T00:18:23.219Z,84.57
2022-11-03T00:19:23.113Z,84.57
2022-11-03T00:20:24.121Z,84.47
2022-11-03T00:21:23.207Z,84.57
2022-11-03T00:22:23.133Z,84.78
2022-11-03T00:23:23.051Z,84.57
2022-11-03T00:24:23.366Z,84.47
2022-11-03T00:25:24.083Z,84.57
2022-11-03T00:26:23.131Z,84.78
2022-11-03T00:27:23.068Z,84.78
2022-11-03T00:28:22.991Z,84.88
2022-11-03T00:29:22.920Z,84.88
2022-11-03T00:30:23.019Z,84.88
2022-11-03T00:31:23.852Z,84.78
2022-11-03T00:32:22.909Z,84.78
2022-11-03T00:33:22.878Z,84.88
2022-11-03T00:34:22.993Z,84.67
2022-11-03T00:35:22.859Z,84.67
2022-11-03T00:36:23.875Z,84.78
2022-11-03T00:37:23.764Z,84.88
2022-11-03T00:38:23.561Z,84.78
2022-11-03T00:39:22.779Z,84.57
2022-11-03T00:40:22.784Z,84.57
2022-11-03T00:41:22.817Z,84.92
2022-11-03T00:42:23.763Z,85.23
2022-11-03T00:43:23.039Z,85.64
2022-11-03T00:44:22.741Z,85.99
2022-11-03T00:45:22.700Z,86.30
2022-11-03T00:46:22.739Z,86.51
2022-11-03T00:47:24.382Z,86.71
2022-11-03T00:48:23.692Z,86.71
2022-11-03T00:49:22.626Z,86.92
2022-11-03T00:50:22.630Z,86.92
2022-11-03T00:51:22.669Z,86.92
2022-11-03T00:52:22.706Z,86.71
2022-11-03T00:53:22.625Z,86.51
2022-11-03T00:54:23.600Z,86.41
2022-11-03T00:55:22.646Z,86.61
2022-11-03T00:56:22.590Z,86.92
2022-11-03T00:57:22.960Z,86.92
2022-11-03T00:58:22.522Z,87.02
2022-11-03T00:59:22.573Z,86.61
2022-11-03T01:00:23.446Z,86.61
2022-11-03T01:01:22.595Z,86.51
2022-11-03T01:02:22.497Z,86.41
2022-11-03T01:03:22.515Z,86.41
2022-11-03T01:04:22.531Z,86.41
2022-11-03T01:05:23.351Z,86.41
2022-11-03T01:06:22.522Z,86.61
2022-11-03T01:07:22.420Z,86.82
2022-11-03T01:08:25.147Z,87.27
2022-11-03T01:09:24.922Z,87.27
2022-11-03T01:10:22.358Z,87.37
2022-11-03T01:11:23.320Z,87.27
2022-11-03T01:12:22.423Z,87.02
2022-11-03T01:13:22.344Z,87.07
2022-11-03T01:14:22.390Z,87.17
2022-11-03T01:15:22.282Z,87.17
2022-11-03T01:16:23.279Z,87.27
2022-11-03T01:17:22.316Z,87.27
2022-11-03T01:18:22.381Z,87.48
2022-11-03T01:19:22.276Z,87.89
2022-11-03T01:20:22.383Z,88.34
2022-11-03T01:21:23.216Z,88.34
2022-11-03T01:22:23.171Z,88.45
2022-11-03T01:23:22.264Z,88.86
2022-11-03T01:24:22.212Z,88.96
2022-11-03T01:25:22.349Z,88.65
2022-11-03T01:26:22.303Z,88.55
2022-11-03T01:27:22.179Z,88.86
2022-11-03T01:28:23.519Z,88.96
2022-11-03T01:29:22.185Z,88.65
2022-11-03T01:30:22.245Z,88.65
2022-11-03T01:31:24.049Z,88.65
2022-11-03T01:32:22.075Z,88.76
2022-11-03T01:33:22.087Z,88.96
2022-11-03T01:34:23.087Z,89.32
2022-11-03T01:35:22.128Z,89.73
2022-11-03T01:36:22.123Z,89.94
2022-11-03T01:37:22.961Z,89.83
2022-11-03T01:38:22.032Z,89.52
2022-11-03T01:39:22.994Z,89.52
2022-11-03T01:40:22.025Z,89.73
2022-11-03T01:41:22.987Z,89.62
2022-11-03T01:42:21.971Z,90.04
2022-11-03T01:43:21.996Z,90.25
2022-11-03T01:44:24.300Z,90.04
2022-11-03T01:45:22.057Z,89.94
2022-11-03T01:46:22.710Z,89.83
2022-11-03T01:47:22.545Z,89.94
2022-11-03T01:48:21.894Z,89.94
2022-11-03T01:49:21.855Z,89.94
2022-11-03T01:50:22.833Z,89.94
2022-11-03T01:51:21.872Z,89.83
2022-11-03T01:52:21.870Z,89.48
2022-11-03T01:53:21.813Z,89.28
2022-11-03T01:54:21.903Z,89.73
2022-11-03T01:55:22.119Z,89.73
2022-11-03T01:56:28.143Z,89.94
2022-11-03T01:57:21.732Z,90.14
2022-11-03T01:58:28.133Z,90.14
2022-11-03T01:59:21.733Z,90.35
2022-11-03T02:00:21.745Z,90.35
2022-11-03T02:01:21.858Z,90.25
2022-11-03T02:02:22.834Z,90.35
2022-11-03T02:03:21.677Z,90.35
2022-11-03T02:04:21.762Z,90.14
2022-11-03T02:05:21.789Z,90.25
2022-11-03T02:06:21.743Z,90.56
2022-11-03T02:07:21.652Z,90.66
2022-11-03T02:08:27.969Z,90.45
2022-11-03T02:09:21.580Z,90.56
2022-11-03T02:10:21.626Z,90.45
2022-11-03T02:11:21.717Z,90.56
2022-11-03T02:12:21.585Z,90.87
2022-11-03T02:13:22.572Z,91.07
2022-11-03T02:14:21.525Z,91.17
2022-11-03T02:15:21.568Z,91.03
2022-11-03T02:16:21.682Z,90.93
2022-11-03T02:17:21.550Z,90.83
2022-11-03T02:18:21.570Z,90.72
2022-11-03T02:19:22.459Z,90.52
2022-11-03T02:20:21.543Z,90.31
2022-11-03T02:21:21.611Z,90.31
2022-11-03T02:22:21.445Z,90.10
2022-11-03T02:23:21.519Z,90.20
2022-11-03T02:24:21.449Z,90.20
2022-11-03T02:25:22.444Z,90.20
2022-11-03T02:26:21.471Z,90.20
2022-11-03T02:27:21.416Z,90.10
2022-11-03T02:28:21.384Z,89.89
2022-11-03T02:29:21.338Z,90.00
2022-11-03T02:30:21.327Z,90.10
2022-11-03T02:31:22.318Z,90.10
2022-11-03T02:32:21.419Z,90.10
2022-11-03T02:33:21.309Z,90.10
2022-11-03T02:34:21.333Z,90.00
2022-11-03T02:35:21.275Z,89.89
2022-11-03T02:36:21.308Z,89.89
2022-11-03T02:37:22.190Z,90.10
2022-11-03T02:38:21.273Z,90.10
2022-11-03T02:39:21.210Z,90.10
2022-11-03T02:40:21.236Z,90.20
2022-11-03T02:41:21.326Z,90.20
2022-11-03T02:42:27.544Z,90.20
2022-11-03T02:43:21.240Z,90.31
2022-11-03T02:44:21.301Z,90.41
2022-11-03T02:45:21.229Z,90.62
2022-11-03T02:46:21.152Z,90.72
2022-11-03T02:47:21.122Z,90.62
2022-11-03T02:48:22.073Z,90.62
2022-11-03T02:49:21.125Z,90.72
2022-11-03T02:50:21.151Z,90.83
2022-11-03T02:51:21.069Z,90.83
2022-11-03T02:52:21.093Z,90.62
2022-11-03T02:53:21.068Z,90.41
2022-11-03T02:54:21.965Z,90.52
2022-11-03T02:55:21.074Z,90.52
2022-11-03T02:56:21.089Z,90.41
2022-11-03T02:57:20.970Z,90.26
2022-11-03T02:58:21.927Z,90.16
2022-11-03T02:59:20.967Z,90.16
2022-11-03T03:00:21.869Z,89.95
2022-11-03T03:01:21.087Z,89.95
2022-11-03T03:02:21.813Z,89.86
2022-11-03T03:03:20.908Z,89.95
2022-11-03T03:04:20.922Z,89.86
2022-11-03T03:05:21.946Z,89.95
2022-11-03T03:06:20.940Z,89.86
2022-11-03T03:07:20.877Z,89.75
2022-11-03T03:08:21.081Z,89.86
2022-11-03T03:09:20.823Z,89.86
2022-11-03T03:10:20.832Z,90.00
2022-11-03T03:11:21.839Z,89.95
2022-11-03T03:12:20.799Z,89.95
2022-11-03T03:13:20.800Z,89.86
2022-11-03T03:14:20.792Z,89.86
2022-11-03T03:15:20.817Z,89.75
2022-11-03T03:16:21.765Z,89.75
2022-11-03T03:17:20.737Z,89.65
2022-11-03T03:18:20.730Z,89.65
2022-11-03T03:19:20.816Z,89.54
2022-11-03T03:20:20.718Z,89.54
2022-11-03T03:21:21.696Z,89.54
2022-11-03T03:22:20.681Z,89.54
2022-11-03T03:23:20.665Z,89.44
2022-11-03T03:24:20.725Z,89.44
2022-11-03T03:25:20.695Z,89.44
2022-11-03T03:26:21.632Z,89.44
2022-11-03T03:27:20.614Z,89.44
2022-11-03T03:28:20.616Z,89.34
2022-11-03T03:29:20.588Z,89.34
2022-11-03T03:30:20.539Z,89.34
2022-11-03T03:31:20.574Z,89.23
2022-11-03T03:32:21.481Z,89.23
2022-11-03T03:33:20.628Z,89.23
2022-11-03T03:34:33.767Z,89.23
2022-11-03T03:35:22.994Z,89.23
2022-11-03T03:36:20.587Z,89.23
2022-11-03T03:37:21.637Z,89.34
2022-11-03T03:38:20.467Z,89.34
2022-11-03T03:39:20.479Z,89.34
2022-11-03T03:40:20.567Z,89.34
2022-11-03T03:41:20.529Z,89.23
2022-11-03T03:42:21.366Z,89.23
2022-11-03T03:43:20.735Z,89.23
2022-11-03T03:44:20.483Z,89.23
2022-11-03T03:45:20.439Z,89.23
2022-11-03T03:46:20.659Z,89.34
2022-11-03T03:47:21.299Z,89.34
2022-11-03T03:48:20.438Z,89.34
2022-11-03T03:49:21.412Z,89.44
2022-11-03T03:50:20.332Z,89.54
2022-11-03T03:51:20.556Z,89.54
2022-11-03T03:52:21.342Z,89.54
2022-11-03T03:53:20.296Z,89.65
2022-11-03T03:54:20.331Z,89.65
2022-11-03T03:55:20.314Z,89.65
2022-11-03T03:56:20.288Z,89.75
2022-11-03T03:57:21.512Z,89.65
2022-11-03T03:58:20.223Z,89.65
2022-11-03T03:59:20.226Z,89.65
2022-11-03T04:00:20.229Z,89.65
2022-11-03T04:01:20.853Z,89.65
2022-11-03T04:02:20.365Z,89.59
2022-11-03T04:03:21.153Z,89.65
2022-11-03T04:04:20.278Z,89.48
2022-11-03T04:05:20.158Z,89.38
2022-11-03T04:06:20.215Z,89.48
2022-11-03T04:07:20.186Z,89.59
2022-11-03T04:08:20.146Z,89.59
2022-11-03T04:09:21.084Z,89.59
2022-11-03T04:10:21.313Z,89.59
2022-11-03T04:11:20.185Z,89.59
2022-11-03T04:12:20.156Z,89.69
2022-11-03T04:13:20.097Z,89.83
2022-11-03T04:14:21.008Z,89.94
2022-11-03T04:15:20.032Z,89.94
2022-11-03T04:16:20.023Z,90.04
2022-11-03T04:17:24.113Z,90.04
2022-11-03T04:18:20.060Z,90.04
2022-11-03T04:19:19.977Z,90.04
2022-11-03T04:20:26.288Z,90.04
2022-11-03T04:21:19.972Z,90.14
2022-11-03T04:22:19.886Z,90.45
2022-11-03T04:23:19.967Z,90.70
2022-11-03T04:24:19.958Z,90.80
2022-11-03T04:25:19.953Z,90.80
2022-11-03T04:26:20.920Z,90.80
2022-11-03T04:27:19.893Z,90.91
2022-11-03T04:28:19.815Z,91.01
2022-11-03T04:29:19.824Z,90.91
2022-11-03T04:30:19.804Z,90.80
2022-11-03T04:31:20.741Z,90.91
2022-11-03T04:32:19.818Z,91.11
2022-11-03T04:33:19.783Z,91.11
2022-11-03T04:34:19.865Z,91.32
2022-11-03T04:35:19.824Z,91.22
2022-11-03T04:36:20.720Z,91.22
2022-11-03T04:37:19.757Z,91.36
2022-11-03T04:38:19.713Z,91.32
2022-11-03T04:39:19.739Z,91.22
2022-11-03T04:40:19.735Z,91.16
2022-11-03T04:41:19.689Z,91.36
2022-11-03T04:42:20.599Z,91.47
2022-11-03T04:43:19.982Z,91.47
2022-11-03T04:44:19.698Z,91.57
2022-11-03T04:45:19.629Z,91.57
2022-11-03T04:46:20.614Z,91.67
2022-11-03T04:47:21.352Z,91.67
2022-11-03T04:48:19.583Z,91.57
2022-11-03T04:49:19.584Z,91.78
2022-11-03T04:50:19.554Z,91.88
2022-11-03T04:51:19.640Z,92.09
2022-11-03T04:52:19.512Z,92.09
2022-11-03T04:53:25.898Z,91.99
2022-11-03T04:54:19.492Z,91.99
2022-11-03T04:55:19.546Z,91.99
2022-11-03T04:56:19.548Z,92.09
2022-11-03T04:57:19.507Z,92.09
2022-11-03T04:58:19.553Z,91.99
2022-11-03T04:59:20.407Z,91.88
2022-11-03T05:00:19.555Z,91.88
2022-11-03T05:01:23.707Z,91.88
2022-11-03T05:02:20.931Z,91.88
2022-11-03T05:03:19.519Z,91.88
2022-11-03T05:04:20.203Z,91.78
2022-11-03T05:05:20.352Z,91.74
2022-11-03T05:06:20.140Z,91.74
2022-11-03T05:07:19.371Z,91.63
2022-11-03T05:08:19.444Z,91.53
2022-11-03T05:09:19.359Z,91.42
2022-11-03T05:10:19.339Z,91.53
2022-11-03T05:11:20.305Z,91.42
2022-11-03T05:12:19.375Z,91.53
2022-11-03T05:13:19.279Z,91.57
2022-11-03T05:14:19.602Z,91.57
2022-11-03T05:15:19.286Z,91.57
2022-11-03T05:16:20.296Z,91.67
2022-11-03T05:17:19.229Z,91.67
2022-11-03T05:18:19.230Z,91.78
2022-11-03T05:19:19.317Z,91.88
2022-11-03T05:20:19.236Z,92.09
2022-11-03T05:21:19.219Z,92.09
2022-11-03T05:22:20.188Z,92.09
2022-11-03T05:23:19.302Z,92.19
2022-11-03T05:24:19.269Z,92.19
2022-11-03T05:25:19.251Z,92.09
2022-11-03T05:26:19.147Z,92.09
2022-11-03T05:27:19.186Z,92.09
2022-11-03T05:28:20.072Z,92.09
2022-11-03T05:29:19.132Z,91.88
2022-11-03T05:30:19.043Z,91.88
2022-11-03T05:31:19.134Z,91.99
2022-11-03T05:32:19.023Z,91.88
2022-11-03T05:33:19.117Z,91.88
2022-11-03T05:34:20.002Z,91.99
2022-11-03T05:35:19.054Z,92.09
2022-11-03T05:36:19.033Z,91.99
2022-11-03T05:37:24.941Z,91.88
2022-11-03T05:38:20.487Z,91.99
2022-11-03T05:39:18.963Z,91.88
2022-11-03T05:40:19.970Z,91.99
2022-11-03T05:41:18.973Z,92.13
2022-11-03T05:42:19.026Z,92.24
2022-11-03T05:43:18.997Z,92.44
2022-11-03T05:44:18.935Z,92.55
2022-11-03T05:45:19.835Z,92.55
2022-11-03T05:46:18.916Z,92.55
2022-11-03T05:47:18.911Z,92.55
2022-11-03T05:48:18.948Z,92.65
2022-11-03T05:49:18.925Z,92.65
2022-11-03T05:50:18.838Z,92.65
2022-11-03T05:51:19.837Z,92.55
2022-11-03T05:52:19.635Z,92.65
2022-11-03T05:53:18.864Z,92.76
2022-11-03T05:54:19.814Z,92.76
2022-11-03T05:55:18.836Z,92.85
2022-11-03T05:56:18.864Z,92.96
2022-11-03T05:57:20.499Z,93.06
2022-11-03T05:58:18.823Z,93.06
2022-11-03T05:59:18.794Z,93.16
2022-11-03T06:00:18.711Z,93.16
2022-11-03T06:01:18.839Z,93.16
2022-11-03T06:02:19.673Z,93.06
2022-11-03T06:03:19.777Z,93.06
2022-11-03T06:04:18.728Z,93.06
2022-11-03T06:05:18.654Z,93.06
2022-11-03T06:06:18.661Z,93.06
2022-11-03T06:07:18.602Z,93.16
2022-11-03T06:08:19.595Z,93.06
2022-11-03T06:09:18.631Z,93.16
2022-11-03T06:10:18.693Z,93.06
2022-11-03T06:11:18.764Z,93.06
2022-11-03T06:12:18.616Z,92.96
2022-11-03T06:13:19.502Z,92.96
2022-11-03T06:14:22.859Z,92.96
2022-11-03T06:15:20.047Z,92.96
2022-11-03T06:16:18.575Z,92.96
2022-11-03T06:17:19.408Z,92.96
2022-11-03T06:18:20.191Z,92.96
2022-11-03T06:19:24.938Z,93.06
2022-11-03T06:20:18.459Z,93.16
2022-11-03T06:21:18.473Z,93.16
2022-11-03T06:22:18.617Z,93.23
2022-11-03T06:23:18.414Z,93.23
2022-11-03T06:24:19.394Z,93.23
2022-11-03T06:25:18.391Z,93.23
2022-11-03T06:26:19.635Z,93.02
2022-11-03T06:27:18.651Z,93.02
2022-11-03T06:28:19.164Z,93.02
2022-11-03T06:29:19.303Z,93.06
2022-11-03T06:30:18.319Z,93.06
2022-11-03T06:31:21.882Z,93.16
2022-11-03T06:32:18.397Z,93.43
2022-11-03T06:33:18.310Z,93.43
2022-11-03T06:34:24.702Z,93.43
2022-11-03T06:35:20.135Z,93.33
2022-11-03T06:36:19.123Z,93.23
2022-11-03T06:37:18.280Z,93.23
2022-11-03T06:38:18.276Z,93.23
2022-11-03T06:39:18.221Z,93.12
2022-11-03T06:40:19.209Z,93.12
2022-11-03T06:41:18.413Z,93.12
2022-11-03T06:42:29.339Z,93.23
2022-11-03T06:43:19.686Z,93.23
2022-11-03T06:44:18.223Z,93.23
2022-11-03T06:45:18.164Z,93.43
2022-11-03T06:46:19.139Z,93.43
2022-11-03T06:47:18.138Z,93.43
2022-11-03T06:48:18.101Z,93.64
2022-11-03T06:49:18.143Z,93.64
2022-11-03T06:50:18.100Z,93.64
2022-11-03T06:51:19.048Z,93.33
2022-11-03T06:52:18.122Z,93.33
2022-11-03T06:53:18.025Z,93.33
2022-11-03T06:54:18.032Z,93.43
2022-11-03T06:55:18.059Z,93.43
2022-11-03T06:56:18.982Z,93.43
2022-11-03T06:57:18.060Z,93.43
2022-11-03T06:58:17.975Z,93.54
2022-11-03T06:59:18.056Z,93.54
2022-11-03T07:00:35.542Z,93.54
2022-11-03T07:01:20.939Z,93.43
2022-11-03T07:02:18.014Z,93.54
2022-11-03T07:03:18.257Z,93.43
2022-11-03T07:04:17.918Z,93.43
2022-11-03T07:05:17.948Z,93.54
2022-11-03T07:06:18.933Z,93.43
2022-11-03T07:07:17.896Z,93.43
2022-11-03T07:08:18.059Z,93.43
2022-11-03T07:09:17.921Z,93.43
2022-11-03T07:10:18.087Z,93.43
2022-11-03T07:11:17.928Z,93.33
2022-11-03T07:12:18.808Z,93.33
2022-11-03T07:13:17.849Z,93.33
2022-11-03T07:14:17.960Z,93.33
2022-11-03T07:15:17.831Z,93.33
2022-11-03T07:16:18.995Z,93.43
2022-11-03T07:17:18.723Z,93.43
2022-11-03T07:18:17.752Z,93.43
2022-11-03T07:19:17.701Z,93.43
2022-11-03T07:20:17.754Z,93.43
2022-11-03T07:21:17.758Z,93.43
2022-11-03T07:22:24.098Z,93.39
2022-11-03T07:23:17.864Z,93.29
2022-11-03T07:24:17.698Z,93.29
2022-11-03T07:25:17.659Z,93.18
2022-11-03T07:26:17.731Z,93.18
2022-11-03T07:27:17.689Z,93.08
2022-11-03T07:28:18.565Z,93.08
2022-11-03T07:29:17.612Z,93.08
2022-11-03T07:30:17.661Z,92.93
2022-11-03T07:31:17.623Z,92.93
2022-11-03T07:32:17.682Z,92.83
2022-11-03T07:33:17.538Z,92.72
2022-11-03T07:34:18.499Z,92.72
2022-11-03T07:35:17.549Z,92.72
2022-11-03T07:36:17.531Z,92.63
2022-11-03T07:37:17.563Z,92.52
2022-11-03T07:38:17.550Z,92.52
2022-11-03T07:39:18.417Z,92.42
2022-11-03T07:40:17.620Z,92.38
2022-11-03T07:41:17.506Z,92.48
2022-11-03T07:42:17.513Z,92.48
2022-11-03T07:43:17.454Z,92.48
2022-11-03T07:44:17.458Z,92.27
2022-11-03T07:45:18.390Z,92.27
2022-11-03T07:46:17.443Z,92.17
2022-11-03T07:47:17.462Z,92.13
2022-11-03T07:48:17.443Z,92.23
2022-11-03T07:49:17.346Z,92.02
2022-11-03T07:50:17.344Z,92.02
2022-11-03T07:51:18.354Z,91.92
2022-11-03T07:52:17.367Z,91.92
2022-11-03T07:53:20.848Z,91.82
2022-11-03T07:54:18.783Z,91.61
2022-11-03T07:55:17.267Z,91.71
2022-11-03T07:56:17.486Z,91.56
2022-11-03T07:57:19.235Z,91.16
2022-11-03T07:58:17.283Z,91.05
2022-11-03T07:59:18.480Z,90.84
2022-11-03T08:00:17.296Z,90.84
2022-11-03T08:01:17.234Z,90.74
2022-11-03T08:02:17.376Z,90.74
2022-11-03T08:03:18.153Z,90.43
2022-11-03T08:04:17.229Z,89.98
2022-11-03T08:05:17.287Z,89.98
2022-11-03T08:06:19.804Z,90.08
2022-11-03T08:07:17.148Z,89.87
2022-11-03T08:08:17.187Z,89.67
2022-11-03T08:09:18.087Z,89.56
2022-11-03T08:10:17.227Z,89.25
2022-11-03T08:11:17.090Z,89.05
2022-11-03T08:12:17.075Z,88.95
2022-11-03T08:13:17.251Z,88.80
2022-11-03T08:14:18.308Z,88.80
2022-11-03T08:15:17.115Z,88.70
2022-11-03T08:16:17.095Z,88.59
2022-11-03T08:17:18.173Z,88.49
2022-11-03T08:18:17.356Z,88.49
2022-11-03T08:19:17.998Z,88.39
2022-11-03T08:20:17.725Z,88.29
2022-11-03T08:21:18.130Z,88.39
2022-11-03T08:22:17.255Z,88.08
2022-11-03T08:23:25.800Z,88.14
2022-11-03T08:24:20.450Z,88.04
2022-11-03T08:25:16.970Z,87.73
2022-11-03T08:26:16.921Z,87.63
2022-11-03T08:27:16.980Z,87.52
2022-11-03T08:28:17.010Z,87.63
2022-11-03T08:29:17.837Z,87.52
2022-11-03T08:30:17.109Z,87.21
2022-11-03T08:31:16.985Z,87.17
2022-11-03T08:32:17.002Z,87.07
2022-11-03T08:33:23.224Z,87.17
2022-11-03T08:34:16.863Z,86.87
2022-11-03T08:35:17.839Z,86.66
2022-11-03T08:36:16.930Z,86.76
2022-11-03T08:37:16.863Z,86.66
2022-11-03T08:38:16.818Z,86.55
2022-11-03T08:39:16.863Z,86.45
2022-11-03T08:40:16.872Z,86.35
2022-11-03T08:41:18.009Z,86.31
2022-11-03T08:42:17.721Z,86.00
2022-11-03T08:43:19.477Z,86.10
2022-11-03T08:44:16.874Z,86.10
2022-11-03T08:45:16.684Z,85.89
2022-11-03T08:46:18.138Z,85.49
2022-11-03T08:47:17.833Z,85.28
2022-11-03T08:48:17.926Z,85.24
2022-11-03T08:49:16.840Z,85.14
2022-11-03T08:50:16.807Z,85.24
2022-11-03T08:51:16.703Z,85.03
2022-11-03T08:52:17.542Z,84.83
2022-11-03T08:53:18.930Z,84.83
2022-11-03T08:54:17.590Z,84.93
2022-11-03T08:55:16.673Z,84.52
2022-11-03T08:56:20.425Z,84.17
2022-11-03T08:57:17.987Z,84.07
2022-11-03T08:58:18.476Z,84.17
2022-11-03T08:59:16.446Z,83.86
2022-11-03T09:00:16.514Z,83.97
2022-11-03T09:01:16.566Z,83.65
2022-11-03T09:02:16.382Z,83.31
2022-11-03T09:03:17.472Z,83.20
2022-11-03T09:04:16.398Z,82.90
2022-11-03T09:05:16.394Z,82.59
2022-11-03T09:06:16.624Z,82.28
2022-11-03T09:07:17.961Z,82.28
2022-11-03T09:11:16.388Z,81.83
2022-11-03T09:12:16.410Z,81.52
2022-11-03T09:13:16.349Z,81.62
2022-11-03T09:14:17.225Z,81.38
2022-11-03T09:15:16.267Z,81.28
2022-11-03T09:16:16.222Z,81.28
2022-11-03T09:17:16.282Z,81.18
2022-11-03T09:18:16.287Z,80.87
2022-11-03T09:19:17.213Z,80.46
2022-11-03T09:20:16.203Z,80.32
2022-11-03T09:21:16.209Z,79.80
2022-11-03T09:22:16.147Z,79.49
2022-11-03T09:23:16.314Z,79.49
2022-11-03T09:24:17.160Z,79.70
2022-11-03T09:25:16.176Z,79.39
2022-11-03T09:26:16.871Z,79.49
2022-11-03T09:27:16.138Z,79.49
2022-11-03T09:28:16.856Z,79.49
2022-11-03T09:29:19.172Z,78.98
2022-11-03T09:30:17.068Z,78.98
2022-11-03T09:31:16.097Z,78.85
2022-11-03T09:32:21.838Z,78.74
2022-11-03T09:33:17.653Z,78.64
2022-11-03T09:34:16.037Z,78.33
2022-11-03T09:35:16.347Z,78.23
2022-11-03T09:36:22.313Z,78.33
2022-11-03T09:37:15.973Z,78.33
2022-11-03T09:38:16.068Z,78.12
2022-11-03T09:39:16.547Z,77.92
2022-11-03T09:40:15.968Z,77.81
2022-11-03T09:41:26.186Z,77.71
2022-11-03T09:42:18.470Z,77.68
2022-11-03T09:43:15.995Z,77.68
2022-11-03T09:44:15.896Z,77.78
2022-11-03T09:45:15.861Z,77.78
2022-11-03T09:46:16.011Z,77.68
2022-11-03T09:47:16.881Z,77.58
2022-11-03T09:48:15.871Z,77.37
2022-11-03T09:49:15.877Z,77.13
2022-11-03T09:50:15.878Z,77.03
2022-11-03T09:51:15.875Z,77.03
2022-11-03T09:52:16.727Z,76.92
2022-11-03T09:53:15.809Z,76.92
2022-11-03T09:54:15.872Z,76.51
2022-11-03T09:55:15.828Z,76.41
2022-11-03T09:56:15.915Z,76.00
2022-11-03T09:57:16.712Z,75.96
2022-11-03T09:58:15.868Z,75.96
2022-11-03T09:59:15.764Z,75.76
2022-11-03T10:00:15.686Z,75.96
2022-11-03T10:01:16.158Z,75.56
2022-11-03T10:02:15.796Z,75.56
2022-11-03T10:03:16.661Z,75.42
2022-11-03T10:04:15.616Z,75.42
2022-11-03T10:06:15.651Z,74.80
2022-11-03T10:07:15.613Z,74.90
2022-11-03T10:08:18.395Z,74.70
2022-11-03T10:09:23.415Z,74.36
2022-11-03T10:10:15.625Z,74.46
2022-11-03T10:11:15.653Z,74.26
2022-11-03T10:12:15.611Z,74.26
2022-11-03T10:13:15.653Z,74.05
2022-11-03T10:14:15.511Z,73.85
2022-11-03T10:15:16.517Z,73.74
2022-11-03T10:16:15.569Z,73.64
2022-11-03T10:17:15.551Z,73.50
2022-11-03T10:18:15.814Z,73.40
2022-11-03T10:19:15.484Z,73.20
2022-11-03T10:20:16.440Z,72.99
2022-11-03T10:21:15.493Z,72.89
2022-11-03T10:22:15.414Z,72.69
2022-11-03T10:23:16.123Z,72.89
2022-11-03T10:24:15.389Z,72.78
2022-11-03T10:25:15.430Z,72.86
2022-11-03T10:26:16.316Z,72.65
2022-11-03T10:27:15.687Z,72.65
2022-11-03T10:28:15.447Z,72.34
2022-11-03T10:29:15.536Z,72.24
2022-11-03T10:30:15.336Z,72.11
2022-11-03T10:31:16.290Z,72.11
2022-11-03T10:32:15.660Z,72.21
2022-11-03T10:33:15.382Z,72.31
2022-11-03T10:34:15.455Z,72.11
2022-11-03T10:35:15.299Z,72.31
2022-11-03T10:36:16.200Z,72.21
2022-11-03T10:37:15.204Z,71.80
2022-11-03T10:38:15.198Z,71.80
2022-11-03T10:39:15.279Z,71.87
2022-11-03T10:40:42.087Z,71.97
2022-11-03T10:41:16.189Z,71.77
2022-11-03T10:42:16.094Z,71.87
2022-11-03T10:43:15.258Z,71.56
2022-11-03T10:44:15.171Z,71.46
2022-11-03T10:45:15.111Z,71.36
2022-11-03T10:46:36.565Z,71.25
2022-11-03T10:47:16.082Z,71.25
2022-11-03T10:48:16.100Z,71.15
2022-11-03T10:49:15.060Z,70.81
2022-11-03T10:50:15.054Z,70.92
2022-11-03T10:51:15.024Z,71.01
2022-11-03T10:52:15.034Z,71.01
2022-11-03T10:53:22.335Z,71.01
2022-11-03T10:54:21.408Z,70.81
2022-11-03T10:55:17.094Z,70.71
2022-11-03T10:56:16.492Z,70.61
2022-11-03T10:57:15.048Z,70.30
2022-11-03T10:58:15.096Z,70.30
2022-11-03T10:59:15.905Z,70.61
2022-11-03T11:00:14.943Z,70.71
2022-11-03T11:01:15.107Z,70.40
2022-11-03T11:02:15.003Z,70.51
2022-11-03T11:03:20.887Z,70.71
2022-11-03T11:04:14.944Z,70.92
2022-11-03T11:05:15.822Z,71.12
2022-11-03T11:06:14.973Z,71.12
2022-11-03T11:07:15.112Z,71.09
2022-11-03T11:08:15.606Z,70.98
2022-11-03T11:09:14.882Z,70.98
2022-11-03T11:10:15.810Z,70.88
2022-11-03T11:11:14.780Z,70.88
2022-11-03T11:12:14.871Z,71.09
2022-11-03T11:13:14.899Z,71.19
2022-11-03T11:14:14.804Z,71.09
2022-11-03T11:15:15.679Z,71.09
2022-11-03T11:16:16.466Z,70.88
2022-11-03T11:17:14.748Z,70.98
2022-11-03T11:18:14.806Z,71.09
2022-11-03T11:19:14.871Z,71.09
2022-11-03T11:20:14.783Z,70.98
2022-11-03T11:21:15.641Z,70.98
2022-11-03T11:22:14.654Z,70.88
2022-11-03T11:23:14.720Z,71.09
2022-11-03T11:24:14.862Z,71.09
2022-11-03T11:25:14.593Z,71.29
2022-11-03T11:26:15.602Z,71.39
2022-11-03T11:27:14.609Z,71.09
2022-11-03T11:28:14.747Z,71.29
2022-11-03T11:29:14.603Z,71.50
2022-11-03T11:30:14.675Z,71.50
2022-11-03T11:31:14.615Z,71.50
2022-11-03T11:32:15.819Z,71.59
2022-11-03T11:33:17.747Z,71.39
2022-11-03T11:34:14.519Z,71.19
2022-11-03T11:35:15.465Z,71.09
2022-11-03T11:36:14.553Z,71.09
2022-11-03T11:37:14.523Z,70.88
2022-11-03T11:38:15.473Z,70.88
2022-11-03T11:39:14.525Z,70.68
2022-11-03T11:40:14.507Z,70.78
2022-11-03T11:41:14.604Z,70.47
2022-11-03T11:42:14.632Z,70.17
2022-11-03T11:43:14.439Z,70.37
2022-11-03T11:44:16.471Z,70.57
2022-11-03T11:45:21.672Z,70.78
2022-11-03T11:46:15.465Z,70.98
2022-11-03T11:47:21.802Z,70.98
2022-11-03T11:48:21.847Z,70.78
2022-11-03T11:49:15.944Z,70.78
2022-11-03T11:50:21.004Z,70.68
2022-11-03T11:51:15.691Z,70.85
2022-11-03T11:52:19.124Z,70.75
2022-11-03T11:53:16.706Z,70.75
2022-11-03T11:54:17.858Z,70.64
2022-11-03T11:55:15.737Z,70.54
2022-11-03T11:56:18.219Z,70.54
2022-11-03T11:57:21.996Z,70.44
2022-11-03T11:58:14.559Z,70.54
2022-11-03T11:59:18.918Z,70.23
2022-11-03T12:00:16.203Z,70.14
2022-11-03T12:01:16.518Z,70.23
2022-11-03T12:02:14.697Z,70.34
2022-11-03T12:03:15.269Z,69.93
2022-11-03T12:04:14.396Z,69.82
2022-11-03T12:05:16.974Z,69.82
2022-11-03T12:06:15.577Z,69.73
2022-11-03T12:07:17.273Z,69.93
2022-11-03T12:08:15.570Z,69.93
2022-11-03T12:09:14.503Z,69.73
2022-11-03T12:10:15.288Z,69.52
2022-11-03T12:11:16.468Z,69.52
2022-11-03T12:12:15.831Z,69.42
2022-11-03T12:13:16.418Z,69.32
2022-11-03T12:14:15.114Z,69.52
2022-11-03T12:15:14.298Z,69.11
2022-11-03T12:16:17.111Z,69.21
2022-11-03T12:17:15.332Z,69.21
2022-11-03T12:18:23.252Z,69.32
2022-11-03T12:19:15.235Z,69.32
2022-11-03T12:20:15.093Z,69.42
2022-11-03T12:21:16.518Z,69.11
2022-11-03T12:22:13.999Z,69.01
2022-11-03T12:23:23.038Z,69.21
2022-11-03T12:24:14.776Z,69.21
2022-11-03T12:25:15.632Z,68.91
2022-11-03T12:26:15.042Z,69.01
2022-11-03T12:27:14.181Z,68.70
2022-11-03T12:28:44.390Z,68.80
2022-11-03T12:29:45.406Z,68.60
2022-11-03T12:30:45.543Z,68.30
2022-11-03T12:31:51.849Z,68.40
2022-11-03T12:32:45.153Z,68.50
2022-11-03T12:33:45.749Z,68.47
2022-11-03T12:34:45.440Z,68.37
2022-11-03T12:35:45.598Z,68.37
2022-11-03T12:36:45.828Z,68.16
2022-11-03T12:37:45.669Z,68.16
2022-11-03T12:38:45.391Z,68.06
2022-11-03T12:39:46.623Z,68.16
2022-11-03T12:40:45.501Z,67.96
2022-11-03T12:41:44.440Z,68.16
2022-11-03T12:42:44.372Z,68.16
2022-11-03T12:43:51.322Z,68.26
2022-11-03T12:44:45.371Z,67.85
2022-11-03T12:45:44.903Z,68.06
2022-11-03T12:46:45.360Z,68.16
2022-11-03T12:47:44.572Z,68.26
2022-11-03T12:48:46.264Z,68.37
2022-11-03T12:49:44.790Z,68.26
2022-11-03T12:50:45.065Z,68.47
2022-11-03T12:51:50.545Z,68.37
2022-11-03T12:52:45.174Z,68.26
2022-11-03T12:53:44.240Z,68.26
2022-11-03T12:54:45.945Z,68.37
2022-11-03T12:55:44.934Z,68.26
2022-11-03T12:56:52.780Z,68.47